Mc Call Municipal Airport
KMYL : now visible

Airfield :











YOU CAN JOIN US ON...

 
LOGIN :

Register | Disclaimer

   EN    FR    IT 

 









Legend :    VFR   Marginal VFR   IFR   Intensive IFR   Very Intensive IFR
Visi :
Ceiling :
>= 8 km
>= 3000ft
5 to 8 km
1000 to 3000 ft
1500m to 5 km
500 to 1000 ft
800 to 1500m
200 to 500 ft
< 800m
< 200 ft
Symbols :   Thunderstorms  Fog  Heavy snow  Heavy precipitations  Wind > 20 kt






- Airport Elevation : 5024 ft


KMYL - Mc Call Municipal

CURRENT METAR :
  • 081151Z AUTO 35004KT 10SM OVC070 M03/M06 A2990 RMK AO2 SLP144 T10281061 11017 21033 56021

EXPIRED METARs :
  • 081051Z AUTO 34006KT 10SM OVC060 M03/M06 A2991 RMK AO2 SLP150 T10281061
  • 080951Z AUTO 35008KT 10SM SCT060 M02/M06 A2995 RMK AO2 SLP160 T10221061

TAF KMYL
Valid from the 08 at 12:00 until the 09 at 12:00 UTC


081120Z 0812/0912 35006KT P6SM VCSH OVC060
FM081900 17008KT 2SM -SN OVC015
FM082300 17006KT 4SM -SHSN BKN020
KZLC FIR / North America



MET'MAP, your aeronautical weather chart ! - Copyright ORBIFLY December 2007 - Disclaimer

ORBIFLY MET'MAP TEAM :

Programming & Development : Alexandra Zaïnal
Concept & original design : Baudouin d'Aumeries
Assistance for programming : Marc-Olivier Méhu
Technical & hardware support : Manuel Goepfert

Contact : metmap@orbifly.com




SOURCES & CREDITS :

   NOAA       Earth
Advisory